Time;durP1;ratioP1;P1;durP2;ratioP2;P2;SDS_P1;SDS_P2;PMS_P1;PMS_P2;Temp;Humidity;BMP_temperature;BMP_pressure;BME280_temperature;BME280_humidity;BME280_pressure;Samples;Min_cycle;Max_cycle;Signal;HPM_P1;HPM_P2
2022/08/01 00:00:41;;;;;;;2.83;2.05;;;;;;;;;;5048010;28;20025;-74
2022/08/01 00:03:07;;;;;;;1.63;1.30;;;;;;;;;;5065640;28;20098;-74
2022/08/01 00:05:33;;;;;;;1.75;1.58;;;;;;;;;;5049569;28;20041;-74
2022/08/01 00:07:59;;;;;;;1.55;1.42;;;;;;;;;;5048722;28;20025;-75
2022/08/01 00:10:25;;;;;;;2.20;1.80;;;;;;;;;;5049313;28;20105;-73
2022/08/01 00:12:51;;;;;;;1.45;1.30;;;;;;;;;;5053004;28;20040;-74
2022/08/01 00:15:17;;;;;;;2.17;1.70;;;;;;;;;;5047562;28;20060;-72
2022/08/01 00:17:43;;;;;;;2.08;1.58;;;;;;;;;;5047806;28;20029;-73
2022/08/01 00:20:11;;;;;;;2.65;1.58;;;;;;;;;;5048225;28;20166;-72
2022/08/01 00:22:37;;;;;;;1.80;1.70;;;;;;;;;;5042628;28;20572;-73
2022/08/01 00:25:03;;;;;;;1.85;1.60;;;;;;;;;;5047415;28;20056;-74
2022/08/01 00:27:29;;;;;;;2.28;2.05;;;;;;;;;;5046340;28;20360;-74
2022/08/01 00:29:55;;;;;;;3.28;1.83;;;;;;;;;;5049325;28;20025;-75
2022/08/01 00:32:21;;;;;;;2.35;2.13;;;;;;;;;;5049584;28;20025;-75
2022/08/01 00:34:47;;;;;;;2.03;1.60;;;;;;;;;;5048939;28;20025;-75
2022/08/01 00:37:13;;;;;;;2.45;1.95;;;;;;;;;;5047342;28;20057;-74
2022/08/01 00:39:39;;;;;;;1.73;1.60;;;;;;;;;;5046935;28;20017;-74
2022/08/01 00:42:12;;;;;;;1.73;1.58;;;;;;;;;;5049189;28;20021;-73
2022/08/01 00:44:38;;;;;;;3.42;1.75;;;;;;;;;;5050466;28;20029;-74
2022/08/01 00:47:04;;;;;;;2.05;1.85;;;;;;;;;;5043005;28;20033;-75
2022/08/01 00:49:30;;;;;;;2.63;1.90;;;;;;;;;;5047302;28;20205;-75
2022/08/01 00:51:58;;;;;;;2.67;1.65;;;;;;;;;;5041649;28;20025;-74
2022/08/01 00:54:24;;;;;;;2.05;1.73;;;;;;;;;;5048823;28;20379;-73
2022/08/01 00:56:50;;;;;;;2.75;1.88;;;;;;;;;;5046777;28;20364;-73
2022/08/01 00:59:18;;;;;;;3.58;2.60;;;;;;;;;;5048036;28;20039;-74
2022/08/01 01:01:44;;;;;;;2.10;1.90;;;;;;;;;;5048442;28;20115;-75
2022/08/01 01:04:10;;;;;;;2.03;1.75;;;;;;;;;;5054503;28;20059;-73
2022/08/01 01:06:36;;;;;;;2.33;1.70;;;;;;;;;;5047427;28;20056;-74
2022/08/01 01:09:08;;;;;;;2.67;2.33;;;;;;;;;;5047656;28;20470;-75
2022/08/01 01:11:40;;;;;;;2.53;1.80;;;;;;;;;;5045443;28;20029;-75
2022/08/01 01:14:10;;;;;;;3.33;1.77;;;;;;;;;;5048441;28;20053;-75
2022/08/01 01:16:37;;;;;;;1.80;1.63;;;;;;;;;;5045186;28;20059;-74
2022/08/01 01:19:05;;;;;;;2.08;1.88;;;;;;;;;;5051504;28;20108;-73
2022/08/01 01:21:53;;;;;;;2.50;1.85;;;;;;;;;;5046772;28;20480;-74
2022/08/01 01:24:46;;;;;;;2.33;1.90;;;;;;;;;;5053190;28;20021;-75
2022/08/01 01:27:15;;;;;;;1.73;1.52;;;;;;;;;;5040887;28;20459;-75
2022/08/01 01:29:43;;;;;;;2.67;1.83;;;;;;;;;;5041603;28;20104;-75
2022/08/01 01:32:19;;;;;;;1.90;1.70;;;;;;;;;;5042191;28;20052;-75
2022/08/01 01:34:46;;;;;;;2.35;1.58;;;;;;;;;;5051426;28;20029;-75
2022/08/01 01:37:15;;;;;;;2.10;1.80;;;;;;;;;;5048420;28;20044;-75
2022/08/01 01:39:42;;;;;;;3.17;1.80;;;;;;;;;;5044269;28;20147;-74
2022/08/01 01:42:09;;;;;;;4.70;1.92;;;;;;;;;;5047760;28;20760;-75
2022/08/01 01:44:36;;;;;;;1.65;1.55;;;;;;;;;;5047731;28;20053;-75
2022/08/01 01:47:03;;;;;;;2.20;1.92;;;;;;;;;;5045767;28;20039;-74
2022/08/01 01:49:29;;;;;;;2.63;2.10;;;;;;;;;;5046193;28;20067;-73
2022/08/01 01:51:56;;;;;;;3.85;2.40;;;;;;;;;;5045643;28;20523;-74
2022/08/01 01:54:23;;;;;;;6.45;2.20;;;;;;;;;;5047614;28;20033;-74
2022/08/01 01:56:50;;;;;;;5.65;2.50;;;;;;;;;;5043550;28;20058;-73
2022/08/01 01:59:20;;;;;;;3.38;2.40;;;;;;;;;;5050030;28;20757;-74
2022/08/01 02:01:47;;;;;;;2.30;1.60;;;;;;;;;;5048001;28;20082;-73
2022/08/01 02:04:14;;;;;;;2.42;2.15;;;;;;;;;;5053034;28;20032;-74
2022/08/01 02:06:40;;;;;;;3.33;2.70;;;;;;;;;;5054183;28;20040;-74
2022/08/01 02:09:08;;;;;;;1.85;1.58;;;;;;;;;;5048208;28;20035;-75
2022/08/01 02:11:34;;;;;;;3.47;2.05;;;;;;;;;;5043730;28;20024;-74
2022/08/01 02:14:02;;;;;;;2.58;1.73;;;;;;;;;;5045937;28;20048;-74
2022/08/01 02:16:29;;;;;;;2.53;2.10;;;;;;;;;;5045470;28;20029;-74
2022/08/01 02:18:56;;;;;;;3.28;2.03;;;;;;;;;;5046330;28;20021;-74
2022/08/01 02:21:34;;;;;;;2.85;1.70;;;;;;;;;;5048394;28;20028;-73
2022/08/01 02:24:17;;;;;;;2.15;1.63;;;;;;;;;;5045749;28;20037;-74
2022/08/01 02:26:46;;;;;;;2.00;1.80;;;;;;;;;;5045988;28;20575;-75
2022/08/01 02:29:15;;;;;;;2.78;1.98;;;;;;;;;;5041770;28;20464;-73
2022/08/01 02:31:44;;;;;;;2.15;1.90;;;;;;;;;;5049236;28;20507;-74
2022/08/01 02:34:12;;;;;;;2.92;2.13;;;;;;;;;;5047922;28;20032;-74
2022/08/01 02:36:38;;;;;;;3.42;2.72;;;;;;;;;;5051318;28;20040;-74
2022/08/01 02:39:08;;;;;;;1.85;1.75;;;;;;;;;;5053132;28;20056;-74
2022/08/01 02:41:38;;;;;;;2.30;1.75;;;;;;;;;;5043505;28;20033;-75
2022/08/01 02:44:06;;;;;;;3.28;2.05;;;;;;;;;;5046737;28;20044;-75
2022/08/01 02:46:40;;;;;;;4.43;2.38;;;;;;;;;;5047773;28;20392;-76
2022/08/01 02:49:07;;;;;;;3.45;2.00;;;;;;;;;;5050556;28;20038;-74
2022/08/01 02:51:34;;;;;;;2.92;2.13;;;;;;;;;;5045781;28;20033;-74
2022/08/01 02:54:01;;;;;;;2.03;1.83;;;;;;;;;;5047899;28;20035;-75
2022/08/01 02:56:34;;;;;;;3.78;2.10;;;;;;;;;;5051473;28;20037;-74
2022/08/01 02:59:01;;;;;;;3.90;2.13;;;;;;;;;;5049571;28;20391;-74
2022/08/01 03:01:26;;;;;;;2.28;1.88;;;;;;;;;;5055228;28;20112;-73
2022/08/01 03:03:52;;;;;;;1.98;1.67;;;;;;;;;;5049016;28;20455;-74
2022/08/01 03:06:19;;;;;;;2.17;1.55;;;;;;;;;;5048440;28;20029;-74
2022/08/01 03:08:45;;;;;;;2.50;2.08;;;;;;;;;;5049902;28;20029;-73
2022/08/01 03:11:12;;;;;;;2.28;1.92;;;;;;;;;;5049446;28;20040;-72
2022/08/01 03:13:38;;;;;;;2.38;1.90;;;;;;;;;;5048667;28;20033;-73
2022/08/01 03:16:05;;;;;;;3.25;2.30;;;;;;;;;;5054468;28;20041;-75
2022/08/01 03:18:31;;;;;;;3.53;2.17;;;;;;;;;;5086447;28;20028;-73
2022/08/01 03:20:59;;;;;;;2.20;1.85;;;;;;;;;;5054183;28;20515;-73
2022/08/01 03:23:25;;;;;;;2.53;2.08;;;;;;;;;;5048839;28;20476;-73
2022/08/01 03:25:52;;;;;;;3.28;2.10;;;;;;;;;;5059552;28;20029;-73
2022/08/01 03:28:19;;;;;;;2.95;2.30;;;;;;;;;;5046367;28;20025;-73
2022/08/01 03:30:45;;;;;;;2.38;2.15;;;;;;;;;;5051154;28;20124;-74
2022/08/01 03:33:11;;;;;;;3.60;2.10;;;;;;;;;;5050213;28;20051;-76
2022/08/01 03:35:39;;;;;;;2.33;1.92;;;;;;;;;;5046807;28;20563;-74
2022/08/01 03:38:06;;;;;;;2.00;1.70;;;;;;;;;;5050241;28;20021;-74
2022/08/01 03:40:37;;;;;;;2.92;2.17;;;;;;;;;;5046109;28;20033;-73
2022/08/01 03:43:06;;;;;;;3.92;2.30;;;;;;;;;;5041822;28;20020;-75
2022/08/01 03:45:35;;;;;;;3.15;2.28;;;;;;;;;;5047288;28;20094;-74
2022/08/01 03:48:22;;;;;;;2.75;2.05;;;;;;;;;;5042992;28;20659;-73
2022/08/01 03:50:50;;;;;;;4.57;1.92;;;;;;;;;;5049096;28;20049;-75
2022/08/01 03:53:21;;;;;;;3.60;2.05;;;;;;;;;;5044862;28;20104;-72
2022/08/01 03:55:47;;;;;;;4.03;2.23;;;;;;;;;;5048211;28;20090;-72
2022/08/01 03:58:13;;;;;;;2.90;1.85;;;;;;;;;;5046286;28;20316;-72
2022/08/01 04:00:40;;;;;;;3.20;2.10;;;;;;;;;;5045941;28;20040;-75
2022/08/01 04:03:07;;;;;;;3.03;2.38;;;;;;;;;;5044291;28;20037;-75
2022/08/01 04:05:33;;;;;;;2.42;2.15;;;;;;;;;;5047925;28;20032;-73
2022/08/01 04:08:01;;;;;;;2.90;2.40;;;;;;;;;;5049563;28;20075;-74
2022/08/01 04:10:27;;;;;;;3.97;2.40;;;;;;;;;;5053729;28;20455;-76
2022/08/01 04:12:53;;;;;;;3.83;2.42;;;;;;;;;;5045688;28;20120;-76
2022/08/01 04:15:20;;;;;;;4.57;2.38;;;;;;;;;;5048865;28;20060;-75
2022/08/01 04:17:46;;;;;;;3.45;2.13;;;;;;;;;;5048313;28;20053;-75
2022/08/01 04:20:13;;;;;;;2.13;1.73;;;;;;;;;;5045228;28;20048;-75
2022/08/01 04:22:39;;;;;;;3.05;1.98;;;;;;;;;;5051345;28;20491;-75
2022/08/01 04:25:08;;;;;;;3.47;2.22;;;;;;;;;;5047103;28;20028;-74
2022/08/01 04:27:38;;;;;;;3.75;2.55;;;;;;;;;;5046671;28;20539;-74
2022/08/01 04:30:05;;;;;;;4.23;2.47;;;;;;;;;;5046857;28;20490;-75
2022/08/01 04:32:34;;;;;;;3.35;2.40;;;;;;;;;;5047687;28;20033;-75
2022/08/01 04:35:01;;;;;;;3.45;2.40;;;;;;;;;;5048197;28;20037;-74
2022/08/01 04:37:28;;;;;;;2.85;2.30;;;;;;;;;;5048647;28;20041;-75
2022/08/01 04:39:55;;;;;;;5.70;2.50;;;;;;;;;;5046433;28;20037;-74
2022/08/01 04:42:22;;;;;;;3.60;2.05;;;;;;;;;;5047057;28;20567;-74
2022/08/01 04:44:48;;;;;;;4.47;2.67;;;;;;;;;;5049815;28;20486;-73
2022/08/01 04:47:14;;;;;;;4.57;2.50;;;;;;;;;;5044437;28;20033;-73
2022/08/01 04:49:41;;;;;;;3.88;2.80;;;;;;;;;;5046346;28;20033;-72
2022/08/01 04:52:07;;;;;;;3.80;2.88;;;;;;;;;;5044120;28;20087;-73
2022/08/01 04:54:36;;;;;;;5.43;2.63;;;;;;;;;;5049425;28;20029;-73
2022/08/01 04:57:03;;;;;;;5.10;2.75;;;;;;;;;;5049703;28;20112;-72
2022/08/01 04:59:42;;;;;;;5.90;2.67;;;;;;;;;;5050368;28;20040;-73
2022/08/01 05:02:15;;;;;;;2.17;1.95;;;;;;;;;;5051326;28;20116;-74
2022/08/01 05:04:41;;;;;;;3.72;2.58;;;;;;;;;;5044642;28;20021;-73
2022/08/01 05:07:08;;;;;;;6.03;2.95;;;20.00;99.90;;;;;;5048092;28;20035;-74
2022/08/01 05:09:35;;;;;;;2.75;2.35;;;20.00;99.90;;;;;;5048689;28;20404;-75
2022/08/01 05:12:02;;;;;;;2.78;2.42;;;19.90;99.90;;;;;;5047134;28;20037;-75
2022/08/01 05:14:31;;;;;;;4.28;2.88;;;19.80;99.90;;;;;;5047997;28;20470;-74
2022/08/01 05:16:57;;;;;;;3.92;2.97;;;19.70;99.90;;;;;;5045610;28;20029;-75
2022/08/01 05:19:22;;;;;;;5.13;2.72;;;19.60;99.90;;;;;;5046358;28;20031;-75
2022/08/01 05:21:48;;;;;;;3.50;2.95;;;19.60;99.90;;;;;;5046287;28;21741;-74
2022/08/01 05:24:13;;;;;;;6.93;3.45;;;19.70;99.90;;;;;;5045977;28;20041;-74
2022/08/01 05:26:39;;;;;;;4.55;3.10;;;19.70;99.90;;;;;;5046374;28;20361;-74
2022/08/01 05:29:05;;;;;;;5.18;2.72;;;19.60;99.90;;;;;;5046855;28;20029;-74
2022/08/01 05:31:33;;;;;;;3.65;2.58;;;19.60;99.90;;;;;;5046457;28;20025;-72
2022/08/01 05:34:02;;;;;;;4.75;2.75;;;19.70;99.90;;;;;;5046747;28;20048;-73
2022/08/01 05:36:28;;;;;;;5.82;3.25;;;19.70;99.90;;;;;;5046667;28;20090;-73
2022/08/01 05:38:53;;;;;;;3.80;2.50;;;19.70;99.90;;;;;;5047869;28;20029;-73
2022/08/01 05:41:19;;;;;;;3.85;2.50;;;19.70;99.90;;;;;;5047830;28;20029;-74
2022/08/01 05:43:44;;;;;;;6.40;2.85;;;19.80;99.90;;;;;;5045494;28;20389;-72
2022/08/01 05:46:10;;;;;;;3.13;2.45;;;19.80;99.90;;;;;;5042508;28;20033;-75
2022/08/01 05:48:35;;;;;;;6.55;3.55;;;19.80;99.90;;;;;;5043640;28;20126;-74
2022/08/01 05:51:01;;;;;;;3.80;2.83;;;19.80;99.90;;;;;;5047212;28;20040;-75
2022/08/01 05:53:27;;;;;;;4.53;2.78;;;19.90;99.90;;;;;;5046906;28;20036;-74
2022/08/01 05:55:52;;;;;;;3.30;2.58;;;20.00;99.90;;;;;;5047729;28;20112;-73
2022/08/01 05:58:17;;;;;;;3.88;2.58;;;20.10;99.90;;;;;;5044058;28;20021;-74
2022/08/01 06:00:43;;;;;;;4.22;2.38;;;20.20;99.90;;;;;;5047066;28;20036;-73
2022/08/01 06:03:08;;;;;;;2.58;2.33;;;20.20;99.90;;;;;;5047714;28;20053;-74
2022/08/01 06:05:34;;;;;;;5.07;2.30;;;20.30;99.90;;;;;;5046078;28;20027;-73
2022/08/01 06:07:59;;;;;;;3.47;2.38;;;20.20;99.90;;;;;;5046951;28;20033;-74
2022/08/01 06:10:25;;;;;;;3.65;2.45;;;20.10;99.90;;;;;;5045377;28;20048;-74
2022/08/01 06:12:50;;;;;;;2.25;1.73;;;20.10;99.90;;;;;;5043338;28;20652;-73
2022/08/01 06:15:16;;;;;;;4.63;2.72;;;20.10;99.90;;;;;;5045392;28;20456;-73
2022/08/01 06:17:41;;;;;;;3.15;2.35;;;20.00;99.90;;;;;;5043900;28;20036;-72
2022/08/01 06:20:08;;;;;;;4.47;2.72;;;20.00;99.90;;;;;;5047025;28;20091;-73
2022/08/01 06:22:33;;;;;;;2.75;2.05;;;20.10;99.90;;;;;;5043543;28;20306;-72
2022/08/01 06:24:59;;;;;;;3.00;2.28;;;20.20;99.90;;;;;;5044180;28;20163;-73
2022/08/01 06:27:25;;;;;;;3.42;2.25;;;20.20;99.90;;;;;;5045517;28;20052;-73
2022/08/01 06:29:53;;;;;;;2.45;1.77;;;20.20;99.90;;;;;;5046212;28;20109;-73
2022/08/01 06:32:19;;;;;;;3.55;2.22;;;20.30;99.90;;;;;;5054693;28;20053;-73
2022/08/01 06:34:44;;;;;;;3.20;1.90;;;20.50;99.90;;;;;;5047488;28;20033;-73
2022/08/01 06:37:12;;;;;;;2.33;1.85;;;20.50;99.90;;;;;;5045591;28;20020;-73
2022/08/01 06:39:38;;;;;;;1.58;1.48;;;20.80;99.90;;;;;;5048472;28;20036;-73
2022/08/01 06:42:03;;;;;;;2.33;1.88;;;20.90;99.90;;;;;;5046854;28;20075;-73
2022/08/01 06:44:29;;;;;;;2.05;1.40;;;21.00;99.90;;;;;;5050051;28;20017;-74
2022/08/01 06:46:54;;;;;;;2.97;2.15;;;21.30;99.90;;;;;;5049424;28;20413;-73
2022/08/01 06:49:20;;;;;;;2.30;1.70;;;21.30;99.90;;;;;;5049705;28;20029;-74
2022/08/01 06:51:45;;;;;;;1.83;1.50;;;21.40;99.90;;;;;;5052137;28;20039;-74
2022/08/01 06:54:11;;;;;;;1.77;1.60;;;21.20;99.90;;;;;;5047957;28;20024;-73
2022/08/01 06:56:37;;;;;;;3.03;1.98;;;21.10;99.90;;;;;;5054270;28;20121;-75
2022/08/01 06:59:02;;;;;;;1.52;1.42;;;21.00;99.90;;;;;;5050475;28;20203;-74
2022/08/01 07:01:29;;;;;;;1.30;1.20;;;21.10;99.90;;;;;;5050398;28;20025;-73
2022/08/01 07:03:54;;;;;;;2.17;1.52;;;21.00;99.90;;;;;;5047212;28;20117;-72
2022/08/01 07:06:23;;;;;;;3.95;2.25;;;20.90;99.90;;;;;;5041883;28;20104;-72
2022/08/01 07:08:49;;;;;;;2.15;1.60;;;20.70;99.90;;;;;;5047409;28;20036;-75
2022/08/01 07:11:15;;;;;;;1.50;1.40;;;20.80;99.90;;;;;;5044938;28;20025;-73
2022/08/01 07:13:40;;;;;;;2.97;1.80;;;20.70;99.90;;;;;;5045441;28;20059;-74
2022/08/01 07:16:06;;;;;;;2.15;1.27;;;20.70;99.90;;;;;;5044772;28;20450;-75
2022/08/01 07:18:31;;;;;;;1.98;1.50;;;20.70;99.90;;;;;;5047011;28;20025;-74
2022/08/01 07:20:57;;;;;;;2.10;1.60;;;20.70;99.90;;;;;;5046955;28;20021;-74
2022/08/01 07:23:22;;;;;;;1.30;1.20;;;20.60;99.90;;;;;;5043935;28;20025;-73
2022/08/01 07:25:48;;;;;;;1.83;1.48;;;20.50;99.90;;;;;;5038818;28;20029;-74
2022/08/01 07:28:15;;;;;;;1.95;1.50;;;20.50;99.90;;;;;;5037211;28;20060;-74
2022/08/01 07:30:41;;;;;;;1.77;1.45;;;20.70;99.90;;;;;;5047339;28;20493;-74
2022/08/01 07:33:08;;;;;;;1.73;1.30;;;20.70;99.90;;;;;;5046950;28;20483;-73
2022/08/01 07:36:35;;;;;;;3.20;1.42;;;20.90;99.90;;;;;;5078616;28;20413;-73
2022/08/01 07:39:01;;;;;;;2.08;1.38;;;21.00;99.90;;;;;;5073839;28;20028;-72
2022/08/01 07:41:29;;;;;;;1.75;1.50;;;21.20;99.90;;;;;;5079667;28;20020;-75
2022/08/01 07:43:54;;;;;;;1.42;1.20;;;21.50;99.90;;;;;;5075174;28;20024;-71
2022/08/01 07:46:23;;;;;;;1.33;1.23;;;21.70;99.90;;;;;;5078430;28;20025;-74
2022/08/01 07:48:48;;;;;;;1.80;1.30;;;22.00;99.90;;;;;;5077954;28;20040;-75
2022/08/01 07:51:14;;;;;;;1.17;1.00;;;22.10;99.90;;;;;;5078132;28;20101;-75
2022/08/01 07:53:39;;;;;;;1.52;1.20;;;22.30;99.90;;;;;;5080682;28;20020;-76
2022/08/01 07:56:05;;;;;;;1.08;0.85;;;22.30;99.90;;;;;;5075333;28;20088;-75
2022/08/01 07:58:32;;;;;;;1.58;1.38;;;22.10;99.90;;;;;;5078346;28;20108;-75
2022/08/01 08:00:57;;;;;;;1.42;1.33;;;22.00;99.90;;;;;;5074097;28;20033;-84
2022/08/01 08:03:23;;;;;;;1.88;1.38;;;21.80;99.90;;;;;;5079009;28;20380;-75
2022/08/01 08:05:51;;;;;;;1.27;1.17;;;21.60;99.90;;;;;;5082650;28;20032;-74
2022/08/01 08:08:18;;;;;;;1.25;1.08;;;21.50;99.90;;;;;;5073831;28;20507;-78
2022/08/01 08:10:44;;;;;;;1.10;1.00;;;21.40;99.90;;;;;;5070568;28;20051;-76
2022/08/01 08:13:09;;;;;;;1.50;1.27;;;21.20;99.90;;;;;;5073324;28;20036;-76
2022/08/01 08:15:34;;;;;;;1.45;1.20;;;21.00;99.90;;;;;;5079775;28;20036;-75
2022/08/01 08:18:00;;;;;;;2.17;1.40;;;21.10;99.90;;;;;;5075817;28;20066;-76
2022/08/01 08:20:27;;;;;;;1.38;0.90;;;21.30;99.90;;;;;;5082038;28;20024;-74
2022/08/01 08:22:54;;;;;;;1.48;1.33;;;21.40;99.90;;;;;;5068660;28;20409;-75
2022/08/01 08:25:20;;;;;;;0.90;0.85;;;21.60;99.90;;;;;;5074281;28;20064;-74
2022/08/01 08:27:48;;;;;;;1.27;1.15;;;21.80;99.90;;;;;;5074719;28;20117;-75
2022/08/01 08:30:14;;;;;;;1.75;1.10;;;22.10;99.90;;;;;;5067169;28;20039;-74
2022/08/01 08:32:40;;;;;;;1.27;1.17;;;22.50;99.90;;;;;;5071736;28;22458;-73
2022/08/01 08:35:07;;;;;;;1.40;1.08;;;22.50;99.90;;;;;;5073513;28;20110;-73
2022/08/01 08:37:34;;;;;;;1.08;0.98;;;22.60;99.90;;;;;;5058036;28;20542;-73
2022/08/01 08:39:59;;;;;;;4.00;1.40;;;22.50;99.90;;;;;;5071489;28;20039;-73
2022/08/01 08:42:25;;;;;;;1.05;0.95;;;22.40;99.90;;;;;;5078254;28;20028;-73
2022/08/01 08:44:50;;;;;;;2.38;0.82;;;22.40;99.90;;;;;;5073975;28;20489;-73
2022/08/01 08:47:18;;;;;;;0.73;0.73;;;22.40;99.90;;;;;;5055515;28;20029;-75
2022/08/01 08:49:44;;;;;;;1.88;0.93;;;22.30;99.90;;;;;;5052567;28;20525;-73
2022/08/01 08:52:10;;;;;;;1.20;0.80;;;22.30;99.90;;;;;;5065022;28;20032;-73
2022/08/01 08:54:38;;;;;;;0.85;0.63;;;22.40;99.90;;;;;;5056538;28;20040;-72
2022/08/01 08:57:04;;;;;;;0.60;0.60;;;22.40;99.90;;;;;;5056804;28;20024;-73
2022/08/01 08:59:30;;;;;;;0.80;0.80;;;22.60;99.90;;;;;;5062312;28;20028;-73
2022/08/01 09:01:57;;;;;;;0.68;0.68;;;22.90;99.90;;;;;;5063945;28;20055;-75
2022/08/01 09:04:23;;;;;;;0.70;0.70;;;23.10;99.90;;;;;;5066097;28;20440;-73
2022/08/01 09:06:48;;;;;;;0.70;0.70;;;23.00;99.90;;;;;;5068088;28;20075;-73
2022/08/01 09:09:14;;;;;;;0.60;0.60;;;22.90;99.90;;;;;;5060995;28;20028;-74
2022/08/01 09:11:40;;;;;;;0.65;0.65;;;22.90;99.90;;;;;;5058483;28;20029;-74
2022/08/01 09:14:08;;;;;;;2.05;0.90;;;23.10;99.90;;;;;;5051781;28;20017;-73
2022/08/01 09:16:35;;;;;;;1.02;0.70;;;23.20;99.90;;;;;;5050259;28;20487;-73
2022/08/01 09:19:18;;;;;;;0.70;0.70;;;23.20;99.90;;;;;;5065067;28;20062;-73
2022/08/01 09:21:58;;;;;;;0.63;0.63;;;23.30;99.90;;;;;;5068444;28;20029;-73
2022/08/01 09:24:25;;;;;;;1.10;0.90;;;23.50;99.90;;;;;;5061812;28;20025;-74
2022/08/01 09:26:52;;;;;;;0.70;0.68;;;23.60;99.90;;;;;;5054463;28;20027;-73
2022/08/01 09:29:20;;;;;;;0.95;0.90;;;23.70;99.90;;;;;;5048100;28;20055;-73
2022/08/01 09:31:46;;;;;;;1.17;0.93;;;23.40;99.90;;;;;;5055174;28;20548;-73
2022/08/01 09:34:12;;;;;;;3.83;0.90;;;23.00;99.90;;;;;;5068704;28;20033;-73
2022/08/01 09:36:54;;;;;;;0.95;0.90;;;22.80;99.90;;;;;;5069049;28;20111;-74
2022/08/01 09:39:21;;;;;;;1.25;1.15;;;22.70;99.90;;;;;;5057246;28;20027;-74
2022/08/01 09:41:47;;;;;;;1.33;1.00;;;22.50;99.90;;;;;;5068945;28;20487;-74
2022/08/01 09:44:14;;;;;;;0.82;0.82;;;22.40;99.90;;;;;;5065966;28;20028;-73
2022/08/01 09:46:49;;;;;;;1.00;0.90;;;22.50;99.90;;;;;;5070900;28;20029;-73
2022/08/01 09:49:27;;;;;;;1.52;0.80;;;22.30;99.90;;;;;;5062248;28;20044;-74
2022/08/01 09:51:53;;;;;;;1.23;1.02;;;22.30;99.90;;;;;;5065792;28;20060;-73
2022/08/01 09:54:29;;;;;;;1.10;1.00;;;22.20;99.90;;;;;;5069842;28;20044;-72
2022/08/01 09:57:11;;;;;;;1.27;1.17;;;22.10;99.90;;;;;;5069367;28;20036;-73
2022/08/01 09:59:40;;;;;;;1.35;1.20;;;22.20;99.90;;;;;;5061565;28;20025;-74
2022/08/01 10:02:05;;;;;;;1.15;0.98;;;22.40;99.90;;;;;;5054957;28;20051;-73
2022/08/01 10:04:31;;;;;;;1.20;1.00;;;22.50;99.90;;;;;;5062037;28;20337;-73
2022/08/01 10:07:05;;;;;;;0.88;0.88;;;22.40;99.90;;;;;;5065241;28;20041;-73
2022/08/01 10:09:33;;;;;;;1.20;1.10;;;22.20;99.90;;;;;;5066914;28;20036;-73
2022/08/01 10:12:00;;;;;;;1.45;1.27;;;22.10;99.90;;;;;;5059767;28;20484;-72
2022/08/01 10:14:26;;;;;;;1.05;0.90;;;22.00;99.90;;;;;;5063900;28;20047;-73
2022/08/01 10:16:57;;;;;;;1.25;1.15;;;22.00;99.90;;;;;;5056986;28;20047;-72
2022/08/01 10:19:25;;;;;;;1.45;1.20;;;22.00;99.90;;;;;;5063987;28;20112;-72
2022/08/01 10:21:53;;;;;;;0.93;0.85;;;22.00;99.90;;;;;;5068852;28;20016;-72
2022/08/01 10:24:23;;;;;;;0.80;0.80;;;22.00;99.90;;;;;;5069162;28;20463;-72
2022/08/01 10:26:52;;;;;;;1.50;1.10;;;21.90;99.90;;;;;;5061003;28;20033;-72
2022/08/01 10:29:19;;;;;;;1.08;1.00;;;22.00;99.90;;;;;;5069257;28;20021;-72
2022/08/01 10:31:46;;;;;;;1.13;1.10;;;22.00;99.90;;;;;;5055203;28;20115;-72
2022/08/01 10:34:15;;;;;;;1.15;1.00;;;22.20;99.90;;;;;;5057100;28;20079;-73
2022/08/01 10:36:42;;;;;;;1.10;1.00;;;22.30;99.90;;;;;;5062803;28;20512;-73
2022/08/01 10:39:10;;;;;;;1.20;0.80;;;22.50;99.90;;;;;;5068803;28;20028;-73
2022/08/01 10:41:37;;;;;;;0.80;0.80;;;22.60;99.90;;;;;;5068517;28;20052;-73
2022/08/01 10:44:03;;;;;;;0.85;0.85;;;22.60;99.90;;;;;;5058031;28;20037;-74
2022/08/01 10:46:30;;;;;;;0.90;0.90;;;22.40;99.90;;;;;;5060425;28;20655;-74
2022/08/01 10:49:06;;;;;;;1.67;1.15;;;22.40;99.90;;;;;;5068162;28;20391;-74
2022/08/01 10:51:37;;;;;;;0.90;0.77;;;22.20;99.90;;;;;;5060470;28;20028;-74
2022/08/01 10:54:06;;;;;;;1.52;1.20;;;22.30;99.90;;;;;;5068700;28;20028;-75
2022/08/01 10:56:47;;;;;;;1.08;0.90;;;22.30;99.90;;;;;;5064641;28;20147;-74
2022/08/01 10:59:29;;;;;;;2.25;1.10;;;22.40;99.90;;;;;;5068384;28;20611;-73
2022/08/01 11:02:03;;;;;;;0.65;0.65;;;22.30;99.90;;;;;;5067896;28;20131;-74
2022/08/01 11:04:57;;;;;;;0.90;0.80;;;22.40;99.90;;;;;;5068032;28;20103;-74
2022/08/01 11:07:38;;;;;;;1.08;1.00;;;22.50;99.90;;;;;;5055454;28;20032;-74
2022/08/01 11:10:14;;;;;;;0.70;0.70;;;22.30;99.90;;;;;;5066111;28;20479;-74
2022/08/01 11:12:41;;;;;;;0.82;0.82;;;22.20;99.90;;;;;;5056054;28;20074;-74
2022/08/01 11:15:09;;;;;;;0.82;0.70;;;22.00;99.90;;;;;;5065500;28;20052;-73
2022/08/01 11:17:41;;;;;;;0.60;0.60;;;21.80;99.90;;;;;;5059027;28;20052;-74
2022/08/01 11:20:15;;;;;;;0.77;0.77;;;21.70;99.90;;;;;;5057270;28;20103;-75
2022/08/01 11:22:59;;;;;;;0.75;0.75;;;21.30;99.90;;;;;;5061624;28;20028;-73
2022/08/01 11:25:48;;;;;;;0.82;0.70;;;21.30;99.90;;;;;;5059024;28;20040;-73
2022/08/01 11:28:14;;;;;;;0.70;0.60;;;21.30;99.90;;;;;;5067885;28;20039;-74
2022/08/01 11:30:50;;;;;;;0.75;0.75;;;21.40;99.90;;;;;;5055191;28;20111;-73
2022/08/01 11:33:18;;;;;;;0.75;0.75;;;21.70;99.90;;;;;;5067784;28;20024;-74
2022/08/01 11:36:11;;;;;;;0.85;0.57;;;22.00;99.90;;;;;;5051076;28;20090;-73
2022/08/01 11:38:38;;;;;;;0.93;0.60;;;22.60;99.90;;;;;;5066635;28;20536;-73
2022/08/01 11:41:11;;;;;;;0.80;0.80;;;23.10;99.90;;;;;;5066333;28;20085;-73
2022/08/01 11:43:55;;;;;;;1.05;0.80;;;23.60;99.90;;;;;;5058555;28;20032;-73
2022/08/01 11:46:46;;;;;;;0.98;0.80;;;24.00;99.90;;;;;;5066700;28;20037;-74
2022/08/01 11:49:32;;;;;;;0.60;0.60;;;23.90;99.90;;;;;;5062010;28;20024;-74
2022/08/01 11:52:15;;;;;;;0.95;0.63;;;23.80;99.90;;;;;;5053274;28;20483;-74
2022/08/01 11:54:45;;;;;;;0.80;0.80;;;24.00;99.90;;;;;;5050780;28;20028;-78
2022/08/01 11:57:13;;;;;;;0.60;0.60;;;24.10;99.90;;;;;;5060095;28;20029;-76
2022/08/01 11:59:48;;;;;;;0.43;0.43;;;24.20;99.90;;;;;;5062770;28;20021;-77
2022/08/01 12:02:22;;;;;;;3.22;0.77;;;24.30;99.90;;;;;;5063288;28;20056;-76
2022/08/01 12:05:20;;;;;;;0.80;0.80;;;24.40;99.90;;;;;;5048845;28;20064;-78
2022/08/01 12:07:49;;;;;;;0.60;0.60;;;24.30;99.90;;;;;;5064044;28;20037;-77
2022/08/01 12:10:17;;;;;;;0.52;0.52;;;23.70;99.90;;;;;;5054911;28;20033;-75
2022/08/01 12:12:48;;;;;;;0.68;0.68;;;23.40;99.90;;;;;;5068527;28;20100;-74
2022/08/01 12:15:14;;;;;;;0.65;0.65;;;22.80;99.90;;;;;;5048816;28;20566;-74
2022/08/01 12:17:42;;;;;;;0.63;0.63;;;22.60;99.90;;;;;;5058438;28;20043;-74
2022/08/01 12:20:09;;;;;;;0.80;0.80;;;22.70;99.90;;;;;;5058462;28;20078;-76
2022/08/01 12:22:36;;;;;;;0.63;0.63;;;23.10;99.90;;;;;;5060147;28;20111;-75
2022/08/01 12:25:08;;;;;;;0.77;0.70;;;23.70;99.90;;;;;;5062640;28;20035;-75
2022/08/01 12:27:35;;;;;;;0.68;0.68;;;24.30;99.90;;;;;;5062827;28;20040;-73
2022/08/01 12:30:01;;;;;;;0.82;0.82;;;24.50;99.90;;;;;;5056796;28;20029;-73
2022/08/01 12:32:32;;;;;;;0.93;0.70;;;24.50;99.90;;;;;;5053313;28;20531;-74
2022/08/01 12:35:06;;;;;;;1.17;0.75;;;24.60;99.90;;;;;;5054393;28;20090;-74
2022/08/01 12:37:38;;;;;;;1.63;1.05;;;25.00;99.90;;;;;;5063314;28;20545;-76
2022/08/01 12:40:36;;;;;;;0.85;0.70;;;24.90;99.90;;;;;;5063124;28;20068;-77
2022/08/01 12:43:07;;;;;;;1.38;1.10;;;25.00;99.90;;;;;;5055297;28;20028;-81
2022/08/01 12:45:39;;;;;;;0.73;0.70;;;25.20;99.90;;;;;;5065899;28;20498;-74
2022/08/01 12:48:11;;;;;;;0.50;0.50;;;25.90;99.90;;;;;;5065339;28;20028;-75
2022/08/01 12:50:38;;;;;;;0.80;0.80;;;27.00;96.90;;;;;;5062568;28;20047;-75
2022/08/01 12:53:03;;;;;;;0.70;0.70;;;27.20;93.00;;;;;;5062051;28;20036;-74
2022/08/01 12:55:29;;;;;;;1.00;0.90;;;26.50;93.50;;;;;;5061781;28;20109;-73
2022/08/01 12:58:12;;;;;;;0.80;0.80;;;25.70;95.00;;;;;;5058834;28;20025;-75
2022/08/01 13:00:40;;;;;;;0.50;0.50;;;24.70;95.90;;;;;;5053864;28;20082;-76
2022/08/01 13:03:09;;;;;;;0.68;0.68;;;23.90;99.40;;;;;;5063429;28;20055;-75
2022/08/01 13:05:45;;;;;;;0.70;0.70;;;23.70;99.90;;;;;;5056519;28;20040;-75
2022/08/01 13:08:15;;;;;;;3.03;1.13;;;23.60;99.90;;;;;;5065092;28;20033;-75
2022/08/01 13:10:42;;;;;;;0.77;0.77;;;23.80;99.90;;;;;;5051002;28;20048;-76
2022/08/01 13:13:09;;;;;;;1.10;0.80;;;24.10;99.90;;;;;;5053661;28;20531;-76
2022/08/01 13:15:36;;;;;;;1.00;1.00;;;24.30;99.90;;;;;;5057393;28;20032;-75
2022/08/01 13:18:23;;;;;;;1.25;1.00;;;24.20;99.90;;;;;;5058698;28;20016;-76
2022/08/01 13:20:49;;;;;;;0.77;0.77;;;24.20;99.90;;;;;;5050580;28;20104;-76
2022/08/01 13:23:18;;;;;;;0.65;0.65;;;24.20;99.90;;;;;;5056409;28;20108;-76
2022/08/01 13:25:52;;;;;;;0.60;0.60;;;24.00;99.90;;;;;;5057649;28;20032;-76
2022/08/01 13:28:19;;;;;;;0.50;0.50;;;23.90;99.90;;;;;;5063663;28;20032;-76
2022/08/01 13:30:56;;;;;;;0.70;0.70;;;23.60;99.90;;;;;;5056712;28;20029;-76
2022/08/01 13:33:22;;;;;;;0.90;0.90;;;23.40;99.90;;;;;;5056849;28;20067;-76
2022/08/01 13:35:50;;;;;;;1.77;1.10;;;23.20;99.90;;;;;;5059326;28;20495;-78